Time;durP1;ratioP1;P1;durP2;ratioP2;P2;SDS_P1;SDS_P2;PMS_P1;PMS_P2;Temp;Humidity;BMP_temperature;BMP_pressure;BME280_temperature;BME280_humidity;BME280_pressure;Samples;Min_cycle;Max_cycle;Signal;HPM_P1;HPM_P2
2022/11/11 00:00:28;;;;;;;5.73;2.50;;;6.70;99.90;;;;;;6158812;23;20157;-49
2022/11/11 00:02:55;;;;;;;3.10;1.90;;;6.70;99.90;;;;;;6158848;23;20490;-49
2022/11/11 00:05:22;;;;;;;4.83;2.40;;;6.60;99.90;;;;;;6133349;23;20216;-48
2022/11/11 00:07:47;;;;;;;7.17;2.40;;;6.60;99.90;;;;;;6160794;23;20248;-49
2022/11/11 00:10:13;;;;;;;5.27;2.13;;;6.60;99.90;;;;;;6161424;23;20236;-49
2022/11/11 00:12:39;;;;;;;5.80;2.30;;;6.60;99.90;;;;;;6160510;23;20180;-49
2022/11/11 00:15:05;;;;;;;2.20;2.00;;;6.60;99.90;;;;;;6160464;23;20158;-49
2022/11/11 00:25:50;;;;;;;4.73;2.03;;;6.70;99.90;;;;;;6160645;23;20160;-48
2022/11/11 00:28:16;;;;;;;4.03;2.57;;;6.60;99.90;;;;;;6160461;23;20181;-48
2022/11/11 00:30:42;;;;;;;3.00;1.90;;;6.60;99.90;;;;;;6160406;23;20214;-49
2022/11/11 00:33:07;;;;;;;3.23;1.97;;;6.70;99.90;;;;;;6159726;23;20193;-50
2022/11/11 00:41:01;;;;;;;6.53;1.77;;;6.70;99.90;;;;;;6159863;23;20189;-49
2022/11/11 00:43:27;;;;;;;4.33;1.90;;;6.70;99.90;;;;;;6159690;23;20161;-49
2022/11/11 00:45:53;;;;;;;2.03;1.73;;;6.70;99.90;;;;;;6159320;23;20164;-49
2022/11/11 00:51:04;;;;;;;4.93;2.17;;;6.70;99.90;;;;;;6159232;23;20152;-49
2022/11/11 00:53:39;;;;;;;4.50;1.80;;;6.60;99.90;;;;;;6158715;23;20490;-49
2022/11/11 00:56:04;;;;;;;3.10;1.77;;;6.60;99.90;;;;;;6158560;23;20174;-49
2022/11/11 00:58:30;;;;;;;3.40;1.90;;;6.60;99.90;;;;;;6133055;23;20265;-49
2022/11/11 01:00:55;;;;;;;8.57;2.13;;;6.60;99.90;;;;;;6158744;23;20160;-49
2022/11/11 01:03:22;;;;;;;2.73;1.73;;;6.50;99.90;;;;;;6160573;23;20500;-49
2022/11/11 01:05:48;;;;;;;6.20;1.67;;;6.50;99.90;;;;;;6160526;23;20220;-48
2022/11/11 01:08:14;;;;;;;3.67;1.40;;;6.50;99.90;;;;;;6161200;23;20263;-50
2022/11/11 01:10:42;;;;;;;2.60;1.60;;;6.40;99.90;;;;;;6161093;23;20157;-49
2022/11/11 01:13:28;;;;;;;3.77;1.90;;;6.40;99.90;;;;;;6160810;23;20181;-48
2022/11/11 01:16:00;;;;;;;4.30;1.50;;;6.30;99.90;;;;;;6160669;23;20556;-49
2022/11/11 01:18:27;;;;;;;2.87;1.70;;;6.20;99.90;;;;;;6160398;23;20178;-49
2022/11/11 01:21:06;;;;;;;2.27;1.60;;;6.20;99.90;;;;;;6160236;23;20259;-48
2022/11/11 01:23:35;;;;;;;2.17;1.60;;;6.20;99.90;;;;;;6160263;23;20148;-49
2022/11/11 01:26:04;;;;;;;4.73;1.70;;;6.10;99.90;;;;;;6160268;23;20505;-50
2022/11/11 01:28:31;;;;;;;3.20;1.60;;;6.10;99.90;;;;;;6160231;23;20173;-49
2022/11/11 01:31:01;;;;;;;3.17;1.60;;;6.00;99.90;;;;;;6160044;23;20160;-49
2022/11/11 01:33:27;;;;;;;4.77;1.70;;;6.00;99.90;;;;;;6159397;23;20272;-43
2022/11/11 01:35:52;;;;;;;3.87;1.87;;;5.90;99.90;;;;;;6157384;23;20207;-43
2022/11/11 01:38:18;;;;;;;2.23;1.57;;;5.90;99.90;;;;;;6157045;23;20175;-43
2022/11/11 01:40:46;;;;;;;3.20;1.87;;;5.80;99.90;;;;;;6131000;23;20224;-44
2022/11/11 01:43:11;;;;;;;4.37;1.93;;;5.80;99.90;;;;;;6157133;23;20478;-40
2022/11/11 01:45:46;;;;;;;4.13;1.40;;;5.80;99.90;;;;;;6157406;23;20189;-45
2022/11/11 01:51:19;;;;;;;2.73;1.67;;;5.70;99.90;;;;;;6157083;23;20204;-44
2022/11/11 01:53:48;;;;;;;2.50;1.93;;;5.70;99.90;;;;;;6131043;23;20203;-44
2022/11/11 01:56:14;;;;;;;4.73;2.27;;;5.60;99.90;;;;;;6156718;23;20172;-41
2022/11/11 01:58:39;;;;;;;3.17;2.37;;;5.60;99.90;;;;;;6156957;23;20208;-40
2022/11/11 02:01:06;;;;;;;3.63;2.67;;;5.60;99.90;;;;;;6156768;23;20158;-43
2022/11/11 02:03:37;;;;;;;5.90;3.10;;;5.50;99.90;;;;;;6156791;23;20159;-44
2022/11/11 02:06:02;;;;;;;3.00;2.33;;;5.50;99.90;;;;;;6156772;23;20599;-43
2022/11/11 02:08:32;;;;;;;5.50;3.03;;;5.50;99.90;;;;;;6131092;23;20192;-44
2022/11/11 02:11:13;;;;;;;3.80;2.93;;;5.40;99.90;;;;;;6156569;23;20678;-43
2022/11/11 02:16:25;;;;;;;9.00;3.27;;;5.40;99.90;;;;;;6157217;23;20260;-41
2022/11/11 02:18:51;;;;;;;3.23;2.70;;;5.40;99.90;;;;;;6156450;23;20206;-44
2022/11/11 02:21:34;;;;;;;6.23;3.30;;;5.40;99.90;;;;;;6156720;23;20151;-41
2022/11/11 02:24:03;;;;;;;7.10;2.90;;;5.40;99.90;;;;;;6156623;23;20149;-40
2022/11/11 02:26:33;;;;;;;4.47;3.37;;;5.40;99.90;;;;;;6130264;23;20182;-42
2022/11/11 02:29:00;;;;;;;6.40;3.00;;;5.30;99.90;;;;;;6130183;23;20256;-43
2022/11/11 02:31:28;;;;;;;4.87;2.80;;;5.30;99.90;;;;;;6156407;23;20210;-39
2022/11/11 02:33:53;;;;;;;4.87;3.00;;;5.30;99.90;;;;;;6156622;23;20173;-43
2022/11/11 02:36:19;;;;;;;5.77;2.80;;;5.20;99.90;;;;;;6156643;23;20160;-43
2022/11/11 02:38:44;;;;;;;6.33;3.10;;;5.10;99.90;;;;;;6156300;23;20231;-45
2022/11/11 02:43:54;;;;;;;5.50;2.90;;;5.10;99.90;;;;;;6156767;23;20153;-43
2022/11/11 02:46:20;;;;;;;4.10;2.70;;;5.10;99.90;;;;;;6130372;23;20237;-42
2022/11/11 02:48:45;;;;;;;6.17;2.47;;;5.10;99.90;;;;;;6156611;23;20174;-43
2022/11/11 02:51:11;;;;;;;4.70;2.70;;;5.10;99.90;;;;;;6156727;23;20159;-42
2022/11/11 02:53:36;;;;;;;4.80;2.53;;;5.00;99.90;;;;;;6156158;23;20349;-41
2022/11/11 02:56:02;;;;;;;5.10;2.70;;;5.10;99.90;;;;;;6130347;23;20171;-43
2022/11/11 02:58:28;;;;;;;5.80;3.07;;;5.00;99.90;;;;;;6156447;23;20190;-41
2022/11/11 03:00:53;;;;;;;7.67;2.90;;;5.00;99.90;;;;;;6156279;23;20194;-44
2022/11/11 03:03:19;;;;;;;5.30;2.87;;;5.00;99.90;;;;;;6156112;23;20155;-43
2022/11/11 03:05:44;;;;;;;6.47;2.70;;;4.90;99.90;;;;;;6156179;23;20156;-45
2022/11/11 03:08:10;;;;;;;7.27;3.33;;;5.00;99.90;;;;;;6156161;23;20184;-44
2022/11/11 03:10:35;;;;;;;5.07;3.10;;;4.90;99.90;;;;;;6156131;23;20594;-43
2022/11/11 03:13:01;;;;;;;6.43;3.10;;;4.90;99.90;;;;;;6156026;23;20155;-41
2022/11/11 03:15:27;;;;;;;7.90;2.57;;;4.90;99.90;;;;;;6156126;23;20541;-44
2022/11/11 03:17:52;;;;;;;5.00;3.00;;;4.90;99.90;;;;;;6156312;23;20181;-44
2022/11/11 03:23:15;;;;;;;4.00;2.67;;;4.80;99.90;;;;;;6156465;23;20173;-42
2022/11/11 03:25:46;;;;;;;4.40;2.73;;;4.80;99.90;;;;;;6156392;23;20145;-43
2022/11/11 03:28:16;;;;;;;5.80;2.60;;;4.80;99.90;;;;;;6155888;23;20171;-44
2022/11/11 03:30:44;;;;;;;6.10;2.93;;;4.80;99.90;;;;;;6155971;23;20155;-42
2022/11/11 03:33:11;;;;;;;9.03;3.00;;;4.70;99.90;;;;;;6156536;23;20597;-44
2022/11/11 03:35:37;;;;;;;3.37;2.63;;;4.70;99.90;;;;;;6156212;23;20155;-43
2022/11/11 03:38:23;;;;;;;6.33;3.00;;;4.70;99.90;;;;;;6155865;23;20177;-45
2022/11/11 03:40:55;;;;;;;3.67;2.93;;;4.70;99.90;;;;;;6156595;23;20154;-44
2022/11/11 03:43:25;;;;;;;4.63;2.90;;;4.60;99.90;;;;;;6159503;23;20193;-45
2022/11/11 03:45:53;;;;;;;4.20;2.90;;;4.60;99.90;;;;;;6159535;23;20150;-42
2022/11/11 03:48:19;;;;;;;4.57;2.60;;;4.50;99.90;;;;;;6159307;23;20184;-45
2022/11/11 03:50:46;;;;;;;4.23;2.70;;;4.50;99.90;;;;;;6159203;23;20158;-45
2022/11/11 03:53:13;;;;;;;3.37;2.53;;;4.40;99.90;;;;;;6161167;23;20623;-45
2022/11/11 03:55:39;;;;;;;7.07;2.90;;;4.40;99.90;;;;;;6161908;23;20175;-48
2022/11/11 03:58:05;;;;;;;4.17;2.57;;;4.40;99.90;;;;;;6163250;23;20485;-49
2022/11/11 04:00:31;;;;;;;7.10;2.80;;;4.40;99.90;;;;;;6163087;23;20208;-49
2022/11/11 04:11:34;;;;;;;3.93;2.90;;;4.40;99.90;;;;;;6161855;23;20149;-48
2022/11/11 04:16:47;;;;;;;4.30;3.20;;;4.40;99.90;;;;;;6162168;23;20149;-49
2022/11/11 04:21:57;;;;;;;3.73;2.90;;;4.40;99.90;;;;;;6161171;23;20698;-50
2022/11/11 04:27:10;;;;;;;4.47;2.80;;;4.30;99.90;;;;;;6160864;23;20154;-48
2022/11/11 04:29:36;;;;;;;6.47;2.70;;;4.30;99.90;;;;;;6160632;23;20212;-47
2022/11/11 04:34:52;;;;;;;4.53;2.37;;;4.30;99.90;;;;;;6160825;23;20225;-48
2022/11/11 04:37:19;;;;;;;6.27;2.77;;;4.40;99.90;;;;;;6160375;23;20468;-48
2022/11/11 04:42:30;;;;;;;6.03;3.13;;;4.30;99.90;;;;;;6160553;23;20146;-48
2022/11/11 04:48:02;;;;;;;3.70;2.70;;;4.20;99.90;;;;;;6160476;23;20184;-49
2022/11/11 04:50:33;;;;;;;4.87;2.80;;;4.20;99.90;;;;;;6160709;23;20164;-48
2022/11/11 04:52:59;;;;;;;3.97;2.90;;;4.20;99.90;;;;;;6159590;23;20464;-49
2022/11/11 04:58:09;;;;;;;5.27;3.37;;;4.30;99.90;;;;;;6158859;23;20185;-49
2022/11/11 05:00:35;;;;;;;6.77;3.40;;;4.40;99.90;;;;;;6159324;23;20154;-49
2022/11/11 05:03:17;;;;;;;6.73;2.90;;;4.40;99.90;;;;;;6158984;23;20154;-48
2022/11/11 05:11:19;;;;;;;3.50;2.50;;;4.40;99.90;;;;;;6159095;23;20192;-49
2022/11/11 05:22:12;;;;;;;9.30;3.07;;;4.20;99.90;;;;;;6158664;23;20160;-48
2022/11/11 05:27:22;;;;;;;5.30;3.00;;;4.20;99.90;;;;;;6158040;23;20150;-49
2022/11/11 05:29:48;;;;;;;7.10;3.40;;;4.30;99.90;;;;;;6158376;23;20600;-48
2022/11/11 05:32:18;;;;;;;5.57;3.00;;;4.30;99.90;;;;;;6158102;23;20543;-49
2022/11/11 05:34:44;;;;;;;7.90;3.10;;;4.30;99.90;;;;;;6157837;23;20632;-48
2022/11/11 05:37:09;;;;;;;10.47;2.90;;;4.30;99.90;;;;;;6157676;23;20165;-48
2022/11/11 05:39:35;;;;;;;3.47;2.47;;;4.20;99.90;;;;;;6158049;23;20154;-47
2022/11/11 05:42:02;;;;;;;5.67;3.10;;;4.20;99.90;;;;;;6158193;23;20558;-47
2022/11/11 05:44:27;;;;;;;5.00;2.80;;;4.20;99.90;;;;;;6157775;23;20161;-49
2022/11/11 05:46:53;;;;;;;5.20;2.47;;;4.20;99.90;;;;;;6157560;23;20298;-49
2022/11/11 05:49:19;;;;;;;4.33;2.60;;;4.20;99.90;;;;;;6157764;23;20182;-49
2022/11/11 05:51:45;;;;;;;5.77;2.80;;;4.20;99.90;;;;;;6157806;23;20158;-49
2022/11/11 05:54:12;;;;;;;7.87;3.00;;;4.30;99.90;;;;;;6157634;23;20195;-48
2022/11/11 05:56:38;;;;;;;9.33;2.70;;;4.20;99.90;;;;;;6158075;23;20150;-49
2022/11/11 05:59:04;;;;;;;5.43;3.00;;;4.30;99.90;;;;;;6159480;23;20174;-48
2022/11/11 06:01:30;;;;;;;3.83;2.67;;;4.20;99.90;;;;;;6158008;23;20157;-47
2022/11/11 06:03:56;;;;;;;9.03;3.07;;;4.20;99.90;;;;;;6157532;23;20162;-48
2022/11/11 06:06:21;;;;;;;6.93;3.30;;;4.20;99.90;;;;;;6157642;23;20168;-48
2022/11/11 06:08:47;;;;;;;6.17;2.70;;;4.30;99.90;;;;;;6157729;23;20182;-48
2022/11/11 06:11:13;;;;;;;3.03;2.43;;;4.30;99.90;;;;;;6157396;23;20595;-49
2022/11/11 06:13:38;;;;;;;9.07;3.10;;;4.30;99.90;;;;;;6157308;23;20190;-48
2022/11/11 06:16:04;;;;;;;5.13;2.77;;;4.40;99.90;;;;;;6157541;23;20234;-49
2022/11/11 06:18:30;;;;;;;8.63;3.10;;;4.40;99.90;;;;;;6157567;23;20205;-49
2022/11/11 06:20:57;;;;;;;5.20;3.00;;;4.40;99.90;;;;;;6158265;23;20154;-49
2022/11/11 06:23:24;;;;;;;8.00;3.17;;;4.40;99.90;;;;;;6157502;23;20161;-48
2022/11/11 06:28:35;;;;;;;4.07;2.43;;;4.30;99.90;;;;;;6157726;23;20523;-49
2022/11/11 06:31:01;;;;;;;6.03;2.73;;;4.30;99.90;;;;;;6157330;23;20593;-45
2022/11/11 06:33:27;;;;;;;7.13;2.63;;;4.20;99.90;;;;;;6131524;23;20641;-47
2022/11/11 06:35:53;;;;;;;5.23;2.30;;;4.20;99.90;;;;;;6157817;23;20244;-48
2022/11/11 06:38:19;;;;;;;5.50;2.60;;;4.10;99.90;;;;;;6157364;23;20200;-48
2022/11/11 06:40:45;;;;;;;4.73;2.30;;;4.10;99.90;;;;;;6157167;23;20153;-47
2022/11/11 06:43:11;;;;;;;4.70;2.50;;;4.10;99.90;;;;;;6131069;23;20157;-48
2022/11/11 06:45:37;;;;;;;5.00;2.30;;;4.10;99.90;;;;;;6157385;23;20197;-48
2022/11/11 06:48:04;;;;;;;3.27;2.23;;;4.10;99.90;;;;;;6156853;23;20655;-48
2022/11/11 06:50:31;;;;;;;4.27;2.33;;;4.10;99.90;;;;;;6157316;23;20164;-48
2022/11/11 06:53:10;;;;;;;4.33;2.50;;;4.10;99.90;;;;;;6156754;23;20182;-48
2022/11/11 06:55:35;;;;;;;3.70;2.33;;;4.10;99.90;;;;;;6157023;23;20172;-47
2022/11/11 06:58:15;;;;;;;4.10;2.70;;;4.20;99.90;;;;;;6157024;23;20173;-47
2022/11/11 07:00:42;;;;;;;11.30;3.03;;;4.10;99.90;;;;;;6157067;23;20145;-49
2022/11/11 07:03:11;;;;;;;8.20;2.57;;;4.20;99.90;;;;;;6157041;23;20161;-47
2022/11/11 07:05:36;;;;;;;4.67;2.73;;;4.40;99.90;;;;;;6157256;23;20160;-48
2022/11/11 07:08:04;;;;;;;9.17;2.87;;;4.50;99.90;;;;;;6157345;23;20201;-49
2022/11/11 07:10:30;;;;;;;7.10;2.67;;;4.50;99.90;;;;;;6157380;23;20237;-48
2022/11/11 07:12:56;;;;;;;4.33;2.50;;;4.60;99.90;;;;;;6157377;23;20165;-48
2022/11/11 08:37:48;;;;;;;8.03;3.57;;;6.90;99.90;;;;;;6158173;23;20258;-43
2022/11/11 08:40:15;;;;;;;7.40;3.63;;;7.00;99.90;;;;;;6158173;23;20233;-42
2022/11/11 08:42:41;;;;;;;8.70;3.60;;;7.00;99.90;;;;;;6157736;23;20156;-45
2022/11/11 08:45:08;;;;;;;9.30;3.83;;;7.10;99.90;;;;;;6157968;23;20225;-44
2022/11/11 08:47:34;;;;;;;9.20;3.73;;;7.20;99.90;;;;;;6157397;23;20179;-45
2022/11/11 08:50:00;;;;;;;9.23;4.30;;;7.30;99.90;;;;;;6157460;23;20160;-44
2022/11/11 08:52:25;;;;;;;16.17;5.17;;;7.30;99.90;;;;;;6157413;23;20165;-44
2022/11/11 08:54:51;;;;;;;12.97;6.20;;;7.40;99.90;;;;;;6157420;23;20180;-45
2022/11/11 08:57:16;;;;;;;13.60;6.90;;;7.50;99.90;;;;;;6157430;23;20152;-44
2022/11/11 08:59:42;;;;;;;16.87;6.67;;;7.60;99.90;;;;;;6157435;23;20157;-43
2022/11/11 09:02:12;;;;;;;14.10;4.67;;;7.70;99.90;;;;;;6157902;23;20264;-45
2022/11/11 09:04:38;;;;;;;11.20;4.57;;;7.80;99.90;;;;;;6157688;23;20174;-43
2022/11/11 09:07:05;;;;;;;7.57;4.07;;;7.90;99.90;;;;;;6157111;23;20161;-47
2022/11/11 09:09:31;;;;;;;8.33;4.87;;;8.00;99.90;;;;;;6157355;23;20545;-44
2022/11/11 09:11:56;;;;;;;14.83;4.60;;;8.20;99.90;;;;;;6157474;23;20237;-45
2022/11/11 09:14:22;;;;;;;8.00;3.37;;;8.30;99.90;;;;;;6157126;23;20211;-42
2022/11/11 09:16:47;;;;;;;9.80;3.30;;;8.40;99.90;;;;;;6157496;23;20158;-43
2022/11/11 09:19:13;;;;;;;7.07;4.20;;;8.60;99.90;;;;;;6157131;23;20620;-44
2022/11/11 09:21:38;;;;;;;10.23;3.17;;;8.70;99.90;;;;;;6157242;23;20154;-42
2022/11/11 09:24:04;;;;;;;6.27;2.97;;;8.80;99.90;;;;;;6157152;23;20158;-43
2022/11/11 09:26:30;;;;;;;10.30;3.37;;;8.90;99.90;;;;;;6157902;23;20494;-44
2022/11/11 09:28:56;;;;;;;7.97;3.50;;;9.10;99.90;;;;;;6157087;23;20209;-43
2022/11/11 09:31:22;;;;;;;12.73;3.50;;;9.20;99.90;;;;;;6157362;23;20181;-43
2022/11/11 09:33:49;;;;;;;12.83;3.53;;;9.30;99.90;;;;;;6157364;23;20192;-44
2022/11/11 09:36:14;;;;;;;10.07;3.73;;;9.50;99.90;;;;;;6157214;23;20150;-43
2022/11/11 09:38:40;;;;;;;5.23;3.33;;;9.60;99.90;;;;;;6157719;23;20197;-43
2022/11/11 09:41:20;;;;;;;6.00;2.87;;;9.80;99.90;;;;;;6156708;23;20220;-45
2022/11/11 09:43:55;;;;;;;5.93;3.40;;;9.90;99.90;;;;;;6157568;23;20146;-44
2022/11/11 09:46:57;;;;;;;6.73;2.90;;;10.10;99.90;;;;;;6157326;23;20220;-44
2022/11/11 09:49:34;;;;;;;6.43;3.20;;;10.20;99.90;;;;;;6102074;23;20632;-45
2022/11/11 09:52:42;;;;;;;7.73;2.97;;;10.40;99.90;;;;;;6157274;23;20149;-44
2022/11/11 09:55:16;;;;;;;11.30;3.10;;;10.50;99.90;;;;;;6063288;23;20585;-45
2022/11/11 09:57:47;;;;;;;6.60;3.33;;;10.60;99.90;;;;;;6156753;23;20611;-45
2022/11/11 10:00:23;;;;;;;5.20;3.10;;;10.60;99.90;;;;;;6156832;23;20157;-44
2022/11/11 10:02:53;;;;;;;4.77;3.00;;;10.70;99.90;;;;;;6157228;23;20149;-45
2022/11/11 10:05:24;;;;;;;6.77;3.20;;;10.80;99.90;;;;;;6157185;23;20154;-45
2022/11/11 10:07:56;;;;;;;6.23;3.27;;;10.90;99.90;;;;;;6157215;23;20230;-46
2022/11/11 10:10:34;;;;;;;6.70;2.80;;;10.90;99.90;;;;;;6157303;23;20138;-46
2022/11/11 10:12:59;;;;;;;5.30;3.23;;;11.10;99.90;;;;;;6156719;23;20134;-45
2022/11/11 10:15:34;;;;;;;6.30;3.10;;;11.20;99.90;;;;;;6156618;23;20243;-45
2022/11/11 10:18:14;;;;;;;3.63;2.80;;;11.30;99.90;;;;;;6156693;23;20182;-45
2022/11/11 10:20:44;;;;;;;4.87;2.80;;;11.40;99.90;;;;;;6156789;23;20144;-45
2022/11/11 10:23:20;;;;;;;3.73;2.50;;;11.60;99.90;;;;;;6156610;23;20181;-45
2022/11/11 10:25:54;;;;;;;6.73;2.70;;;11.70;99.90;;;;;;6156943;23;20148;-43
2022/11/11 10:28:25;;;;;;;6.60;2.43;;;11.80;99.90;;;;;;6156495;23;20231;-44
2022/11/11 10:30:53;;;;;;;3.30;2.10;;;12.00;99.90;;;;;;6156650;23;20177;-44
2022/11/11 10:33:27;;;;;;;3.57;2.13;;;12.00;99.90;;;;;;6156374;23;20149;-43
2022/11/11 10:35:56;;;;;;;5.03;2.70;;;12.10;99.90;;;;;;6157176;23;20151;-46
2022/11/11 10:38:36;;;;;;;4.57;2.80;;;12.20;99.90;;;;;;6156318;23;20215;-44
2022/11/11 10:41:28;;;;;;;3.83;2.37;;;12.30;99.90;;;;;;6157178;23;20138;-47
2022/11/11 10:43:53;;;;;;;3.97;2.40;;;12.50;99.90;;;;;;6156759;23;20149;-46
2022/11/11 10:46:37;;;;;;;4.47;2.30;;;12.50;99.90;;;;;;6156742;23;20237;-44
2022/11/11 10:49:16;;;;;;;3.37;2.57;;;12.60;99.90;;;;;;6156669;23;20181;-43
2022/11/11 10:51:48;;;;;;;4.53;3.00;;;12.70;99.90;;;;;;6155773;23;20142;-44
2022/11/11 10:54:25;;;;;;;5.37;3.20;;;12.70;99.90;;;;;;6155369;23;20184;-46
2022/11/11 10:57:08;;;;;;;5.43;3.10;;;12.90;99.90;;;;;;6156347;23;20152;-43
2022/11/11 10:59:43;;;;;;;4.13;2.70;;;13.00;99.90;;;;;;6156589;23;20217;-45
2022/11/11 11:02:25;;;;;;;3.80;2.70;;;13.10;99.90;;;;;;6156542;23;20146;-44
2022/11/11 11:04:53;;;;;;;3.80;2.53;;;13.20;99.90;;;;;;6156485;23;20205;-46
2022/11/11 11:07:26;;;;;;;7.90;2.63;;;13.40;99.90;;;;;;6156395;23;20173;-45
2022/11/11 11:10:03;;;;;;;7.27;2.40;;;13.40;99.90;;;;;;6156170;23;20146;-45
2022/11/11 11:12:47;;;;;;;7.60;2.57;;;13.50;99.90;;;;;;6156634;23;20157;-44
2022/11/11 11:15:19;;;;;;;4.00;2.17;;;13.60;99.90;;;;;;6156456;23;20174;-45
2022/11/11 11:18:00;;;;;;;7.80;2.20;;;13.60;99.90;;;;;;6155999;23;20177;-45
2022/11/11 11:20:25;;;;;;;11.13;2.93;;;13.60;99.90;;;;;;6156423;23;20201;-46
2022/11/11 11:22:54;;;;;;;9.37;2.63;;;13.70;99.90;;;;;;6156117;23;20141;-46
2022/11/11 11:25:21;;;;;;;9.23;2.80;;;13.70;99.90;;;;;;6129848;23;20247;-44
2022/11/11 11:27:50;;;;;;;7.67;2.57;;;13.80;99.90;;;;;;6155909;23;20624;-44
2022/11/11 11:30:24;;;;;;;3.83;2.37;;;13.80;99.90;;;;;;6155910;23;20158;-44
2022/11/11 11:33:02;;;;;;;6.77;2.40;;;13.80;99.90;;;;;;6156783;23;20610;-44
2022/11/11 11:35:41;;;;;;;6.20;2.00;;;13.90;99.90;;;;;;6155958;23;20660;-44
2022/11/11 11:38:08;;;;;;;9.67;2.60;;;13.90;99.90;;;;;;6154398;23;20193;-50
2022/11/11 11:40:52;;;;;;;8.77;2.47;;;13.90;99.90;;;;;;6158250;23;20157;-50
2022/11/11 11:43:34;;;;;;;4.73;2.53;;;13.90;99.90;;;;;;6158528;23;20153;-51
2022/11/11 11:46:13;;;;;;;4.77;2.30;;;13.90;99.90;;;;;;6158262;23;20156;-50
2022/11/11 11:49:02;;;;;;;8.50;2.40;;;14.00;99.90;;;;;;6158007;23;20171;-48
2022/11/11 11:52:19;;;;;;;5.93;2.37;;;14.10;99.90;;;;;;6157944;23;20149;-51
2022/11/11 11:55:11;;;;;;;3.57;2.10;;;14.20;99.90;;;;;;6039391;23;20562;-51
2022/11/11 11:57:51;;;;;;;10.33;2.40;;;14.30;99.90;;;;;;6153148;23;20178;-52
2022/11/11 12:00:58;;;;;;;4.13;2.10;;;14.40;99.90;;;;;;6157162;23;20146;-51
2022/11/11 12:03:41;;;;;;;6.73;2.27;;;14.50;99.90;;;;;;6159097;23;20276;-49
2022/11/11 12:06:18;;;;;;;3.30;2.10;;;14.60;99.90;;;;;;6160862;23;20145;-49
2022/11/11 12:09:04;;;;;;;5.03;2.30;;;14.60;99.90;;;;;;6161308;23;20173;-49
2022/11/11 12:11:46;;;;;;;3.10;2.00;;;14.70;99.90;;;;;;6161774;23;20138;-50
2022/11/11 12:14:36;;;;;;;3.97;2.10;;;14.70;99.90;;;;;;6161815;23;20683;-50
2022/11/11 12:17:18;;;;;;;6.00;1.80;;;14.80;99.90;;;;;;6162767;23;20209;-49
2022/11/11 12:20:08;;;;;;;4.40;1.67;;;14.90;99.90;;;;;;6161743;23;20656;-49
2022/11/11 12:23:04;;;;;;;4.50;1.87;;;15.00;99.90;;;;;;6162024;23;20205;-49
2022/11/11 12:25:45;;;;;;;2.13;1.53;;;15.00;99.90;;;;;;6161875;23;20148;-49
2022/11/11 12:28:13;;;;;;;3.87;1.70;;;15.10;99.90;;;;;;6161193;23;20565;-50
2022/11/11 12:31:04;;;;;;;3.10;1.90;;;15.10;99.90;;;;;;6160168;23;20153;-52
2022/11/11 12:34:02;;;;;;;3.63;1.80;;;15.10;99.90;;;;;;6157720;23;20189;-45
2022/11/11 12:36:51;;;;;;;2.40;1.80;;;15.20;99.90;;;;;;6156741;23;20166;-44
2022/11/11 12:39:35;;;;;;;3.13;1.83;;;15.30;99.90;;;;;;6157598;23;20177;-46
2022/11/11 12:42:25;;;;;;;3.33;1.40;;;15.40;99.90;;;;;;6157655;23;20204;-45
2022/11/11 12:44:59;;;;;;;7.80;1.63;;;15.40;99.90;;;;;;6157451;23;20191;-43
2022/11/11 12:48:13;;;;;;;3.00;1.80;;;15.50;99.90;;;;;;6157777;23;20526;-46
2022/11/11 12:51:03;;;;;;;4.73;1.80;;;15.50;99.90;;;;;;6039445;23;20200;-46
2022/11/11 12:54:04;;;;;;;2.13;1.40;;;15.60;99.90;;;;;;6157360;23;20209;-45
2022/11/11 12:57:04;;;;;;;1.97;1.30;;;15.60;99.90;;;;;;6157708;23;20142;-45
2022/11/11 12:59:48;;;;;;;2.53;1.30;;;15.60;99.90;;;;;;6157722;23;20172;-45
2022/11/11 13:02:36;;;;;;;4.33;1.50;;;15.60;99.90;;;;;;6157413;23;20208;-44
2022/11/11 13:05:20;;;;;;;3.83;1.40;;;15.70;99.90;;;;;;6157717;23;20465;-43
2022/11/11 13:08:20;;;;;;;4.83;1.27;;;15.70;99.90;;;;;;6157435;23;20256;-45
2022/11/11 13:11:12;;;;;;;3.80;1.67;;;15.80;99.90;;;;;;6157673;23;20472;-44
2022/11/11 13:13:54;;;;;;;4.90;1.80;;;15.80;99.90;;;;;;6157596;23;20256;-46
2022/11/11 13:16:23;;;;;;;6.07;2.07;;;15.80;99.90;;;;;;6157470;23;20536;-44
2022/11/11 13:19:01;;;;;;;3.43;1.60;;;15.90;99.90;;;;;;6157643;23;20188;-44
2022/11/11 13:21:41;;;;;;;8.73;1.80;;;15.90;99.90;;;;;;6157547;23;20164;-44
2022/11/11 13:24:11;;;;;;;2.53;1.47;;;15.90;99.90;;;;;;6157553;23;20485;-46
2022/11/11 13:26:55;;;;;;;3.70;1.67;;;15.90;99.90;;;;;;6157452;23;20545;-44
2022/11/11 13:29:33;;;;;;;3.33;1.43;;;15.90;99.90;;;;;;6158072;23;20189;-46
2022/11/11 13:32:02;;;;;;;3.93;1.50;;;15.90;99.90;;;;;;6157621;23;20164;-52
2022/11/11 13:34:33;;;;;;;4.03;1.50;;;16.00;99.90;;;;;;6157440;23;20194;-52
2022/11/11 13:37:03;;;;;;;3.80;1.57;;;16.00;99.90;;;;;;6156975;23;20592;-49
2022/11/11 13:39:43;;;;;;;2.33;1.37;;;16.10;99.90;;;;;;6157080;23;20651;-50
2022/11/11 13:42:12;;;;;;;2.93;1.93;;;16.10;99.90;;;;;;6157123;23;20142;-51
2022/11/11 13:44:50;;;;;;;4.77;1.70;;;16.10;99.90;;;;;;6157497;23;20495;-50
2022/11/11 13:47:24;;;;;;;2.60;1.40;;;16.10;99.90;;;;;;6157471;23;20217;-50
2022/11/11 13:49:58;;;;;;;3.80;1.40;;;16.10;99.90;;;;;;6157509;23;20477;-51
2022/11/11 13:52:31;;;;;;;3.47;1.50;;;16.10;99.90;;;;;;6157440;23;20145;-50
2022/11/11 13:55:06;;;;;;;5.10;1.70;;;16.10;99.90;;;;;;6157338;23;20182;-50
2022/11/11 13:57:34;;;;;;;4.93;1.87;;;16.10;99.90;;;;;;6157234;23;20699;-52
2022/11/11 14:00:22;;;;;;;4.10;1.63;;;16.00;99.90;;;;;;6156816;23;20154;-50
2022/11/11 14:03:16;;;;;;;5.87;1.60;;;16.00;99.90;;;;;;6157176;23;20162;-50
2022/11/11 14:05:42;;;;;;;3.37;1.50;;;16.00;99.90;;;;;;6156894;23;20157;-50
2022/11/11 14:08:08;;;;;;;5.17;1.57;;;15.90;99.90;;;;;;6156751;23;20205;-49
2022/11/11 14:10:34;;;;;;;2.17;1.47;;;15.90;99.90;;;;;;6156714;23;20237;-50
2022/11/11 14:13:24;;;;;;;6.47;2.17;;;15.90;99.90;;;;;;6156797;23;20177;-50
2022/11/11 14:15:53;;;;;;;10.53;1.60;;;15.90;99.90;;;;;;6157206;23;20165;-51
2022/11/11 14:18:18;;;;;;;3.07;1.40;;;15.90;99.90;;;;;;6156775;23;20659;-50
2022/11/11 14:20:51;;;;;;;4.80;1.40;;;15.80;99.90;;;;;;6157373;23;20177;-50
2022/11/11 14:23:22;;;;;;;4.30;1.53;;;15.80;99.90;;;;;;6156781;23;20169;-50
2022/11/11 14:26:15;;;;;;;2.77;1.60;;;15.80;99.90;;;;;;6156830;23;20619;-49
2022/11/11 14:28:46;;;;;;;5.23;1.80;;;15.70;99.90;;;;;;6156882;23;20509;-50
2022/11/11 14:31:12;;;;;;;5.00;2.27;;;15.60;99.90;;;;;;6156459;23;20600;-49
2022/11/11 14:33:50;;;;;;;3.87;1.60;;;15.60;99.90;;;;;;6156735;23;20213;-50
2022/11/11 14:36:32;;;;;;;4.30;1.50;;;15.50;99.90;;;;;;6156708;23;20225;-50
2022/11/11 14:39:08;;;;;;;4.87;1.50;;;15.50;99.90;;;;;;6156316;23;20263;-49
2022/11/11 14:41:53;;;;;;;5.57;1.53;;;15.40;99.90;;;;;;6156987;23;20141;-49
2022/11/11 14:44:27;;;;;;;7.67;1.77;;;15.30;99.90;;;;;;6156720;23;20158;-51
2022/11/11 14:47:05;;;;;;;2.73;1.40;;;15.30;99.90;;;;;;6156398;23;20231;-50
2022/11/11 14:49:46;;;;;;;3.13;1.70;;;15.20;99.90;;;;;;6156358;23;20157;-51
2022/11/11 14:52:34;;;;;;;5.50;1.37;;;15.20;99.90;;;;;;6156411;23;20172;-49
2022/11/11 14:55:14;;;;;;;7.67;1.47;;;15.10;99.90;;;;;;6156681;23;20205;-49
2022/11/11 14:57:48;;;;;;;7.63;1.37;;;15.00;99.90;;;;;;6157141;23;20169;-52
2022/11/11 15:00:22;;;;;;;4.97;1.83;;;14.90;99.90;;;;;;6157589;23;20580;-49
2022/11/11 15:03:07;;;;;;;7.77;1.37;;;14.80;99.90;;;;;;6156803;23;20150;-48
2022/11/11 15:05:49;;;;;;;3.17;1.30;;;14.70;99.90;;;;;;6156953;23;20181;-50
2022/11/11 15:08:40;;;;;;;2.50;1.33;;;14.60;99.90;;;;;;6156208;23;20256;-49
2022/11/11 15:11:22;;;;;;;6.37;1.40;;;14.50;99.90;;;;;;6157098;23;20475;-49
2022/11/11 15:13:56;;;;;;;4.00;1.47;;;14.50;99.90;;;;;;6156219;23;20184;-49
2022/11/11 15:16:52;;;;;;;7.23;2.03;;;14.30;99.90;;;;;;6156844;23;20556;-50
2022/11/11 15:19:27;;;;;;;5.17;1.73;;;14.20;99.90;;;;;;6156066;23;20654;-49
2022/11/11 15:22:33;;;;;;;5.60;3.37;;;14.20;99.90;;;;;;6156484;23;20153;-50
2022/11/11 15:25:10;;;;;;;8.63;5.03;;;14.00;99.90;;;;;;6156512;23;20149;-50
2022/11/11 15:27:43;;;;;;;11.30;6.37;;;13.90;99.90;;;;;;6156281;23;20215;-51
2022/11/11 15:30:10;;;;;;;8.37;3.90;;;13.80;99.90;;;;;;6156337;23;20153;-49
2022/11/11 15:32:54;;;;;;;7.03;2.67;;;13.70;99.90;;;;;;6130365;23;20160;-50
2022/11/11 15:36:02;;;;;;;6.13;2.30;;;13.60;99.90;;;;;;6156624;23;20169;-50
2022/11/11 15:38:29;;;;;;;7.23;2.40;;;13.50;99.90;;;;;;6142334;23;20201;-51
2022/11/11 15:40:57;;;;;;;7.97;1.80;;;13.40;99.90;;;;;;6156484;23;20215;-50
2022/11/11 15:43:29;;;;;;;3.27;1.77;;;13.30;99.90;;;;;;6156673;23;20158;-52
2022/11/11 15:45:58;;;;;;;4.47;1.90;;;13.20;99.90;;;;;;6156670;23;20149;-50
2022/11/11 15:48:40;;;;;;;4.40;1.73;;;13.20;99.90;;;;;;6156360;23;20172;-51
2022/11/11 15:51:21;;;;;;;5.47;2.60;;;13.10;99.90;;;;;;6158075;23;20213;-50
2022/11/11 15:53:47;;;;;;;6.93;3.00;;;13.00;99.90;;;;;;6157386;23;20549;-50
2022/11/11 15:56:31;;;;;;;4.90;2.17;;;13.00;99.90;;;;;;6156312;23;20167;-49
2022/11/11 15:58:57;;;;;;;4.67;2.47;;;12.80;99.90;;;;;;6156265;23;20184;-50